Terminal Aerodrome Forecast
Issued by NWS

Home | Current Version | Previous Version | Text Only | Print | Product List | Glossary On
Versions: 1 2 3 4 5 6 7 8 9 10 11 12 13
000
FTUS46 KSTO 201700
TAFSCK
TAF
KSCK 201737Z 2018/2118 14008KT P6SM VCSH SCT007 OVC020
      TEMPO 2018/2021 4SM -SHRA BR BKN007
     FM202200 14006KT P6SM VCSH BKN040
     FM210900 VRB04KT 2SM BR OVC008
      TEMPO 2112/2116 1SM BR OVC003=

USA.gov is the U.S. government's official web portal to all federal, state and local government web resources and services.